createdAt,value
2023-12-30T00:02:55.490Z,8.99
2023-12-30T00:07:06.188Z,9.00
2023-12-30T00:11:27.683Z,8.96
2023-12-30T00:15:43.279Z,8.98
2023-12-30T00:19:54.271Z,8.44
2023-12-30T00:24:02.287Z,9.00
2023-12-30T00:28:41.819Z,8.88
2023-12-30T00:33:10.714Z,8.80
2023-12-30T00:37:37.698Z,8.92
2023-12-30T00:41:45.992Z,9.00
2023-12-30T00:46:02.953Z,8.95
2023-12-30T00:50:37.282Z,8.61
2023-12-30T00:54:48.173Z,8.09
2023-12-30T00:59:02.008Z,8.84
2023-12-30T01:03:29.657Z,8.80
2023-12-30T01:07:52.440Z,8.53
2023-12-30T01:12:30.612Z,8.69
2023-12-30T01:16:52.507Z,8.69
2023-12-30T01:21:01.078Z,8.61
2023-12-30T01:25:13.312Z,8.07
2023-12-30T01:29:53.821Z,8.24
2023-12-30T01:34:12.675Z,8.13
2023-12-30T01:38:25.004Z,8.03
2023-12-30T01:42:45.310Z,7.98
2023-12-30T01:47:00.448Z,7.91
2023-12-30T01:51:24.929Z,7.85
2023-12-30T01:56:10.177Z,7.75
2023-12-30T02:00:30.283Z,7.67
2023-12-30T02:04:39.552Z,7.52
2023-12-30T02:08:51.162Z,7.48
2023-12-30T02:12:53.827Z,7.57
2023-12-30T02:17:03.170Z,7.59
2023-12-30T02:21:09.530Z,7.61
2023-12-30T02:25:21.999Z,7.57
2023-12-30T02:29:41.237Z,7.51
2023-12-30T02:34:12.797Z,7.46
2023-12-30T02:38:59.680Z,7.45
2023-12-30T02:44:15.302Z,7.42
2023-12-30T02:48:56.954Z,7.59
2023-12-30T02:53:37.585Z,7.84
2023-12-30T02:57:50.397Z,7.91
2023-12-30T03:02:00.294Z,7.83
2023-12-30T03:06:11.262Z,7.87
2023-12-30T03:14:53.681Z,7.53
2023-12-30T03:19:09.492Z,7.36
2023-12-30T03:23:19.777Z,7.12
2023-12-30T03:27:26.056Z,7.25
2023-12-30T03:31:43.022Z,7.27
2023-12-30T03:36:05.707Z,7.14
2023-12-30T03:40:20.826Z,7.19
2023-12-30T03:44:39.498Z,7.20
2023-12-30T03:48:45.881Z,7.17
2023-12-30T03:53:04.824Z,7.07
2023-12-30T03:57:23.583Z,7.13
2023-12-30T04:01:28.991Z,7.40
2023-12-30T04:05:34.662Z,7.51
2023-12-30T04:09:42.207Z,7.69
2023-12-30T04:13:49.648Z,7.81
2023-12-30T04:18:06.365Z,7.85
2023-12-30T04:22:12.861Z,8.51
2023-12-30T04:26:23.582Z,8.73
2023-12-30T04:30:40.151Z,8.64
2023-12-30T04:34:51.352Z,8.41
2023-12-30T04:39:12.979Z,8.67
2023-12-30T04:53:08.819Z,8.02
2023-12-30T04:57:22.435Z,7.91
2023-12-30T05:01:41.799Z,7.69
2023-12-30T05:05:42.471Z,7.66
2023-12-30T05:10:01.288Z,7.65
2023-12-30T05:14:10.504Z,7.28
2023-12-30T05:18:37.749Z,7.11
2023-12-30T05:23:00.117Z,7.26
2023-12-30T05:27:17.048Z,7.24
2023-12-30T05:31:31.323Z,7.19
2023-12-30T05:35:41.459Z,7.09
2023-12-30T05:39:47.475Z,7.12
2023-12-30T05:44:07.092Z,7.16
2023-12-30T05:48:11.905Z,6.68
2023-12-30T05:52:40.786Z,6.18
2023-12-30T05:56:57.088Z,6.26
2023-12-30T06:01:02.217Z,6.64
2023-12-30T06:05:15.550Z,7.02
2023-12-30T06:09:31.855Z,6.85
2023-12-30T06:13:54.610Z,6.76
2023-12-30T06:18:52.291Z,6.54
2023-12-30T06:23:12.298Z,7.06
2023-12-30T06:27:32.148Z,7.42
2023-12-30T06:31:38.876Z,7.70
2023-12-30T06:35:42.906Z,7.78
2023-12-30T06:39:49.883Z,7.96
2023-12-30T06:44:08.145Z,8.02
2023-12-30T06:48:23.217Z,8.15
2023-12-30T06:52:50.486Z,8.26
2023-12-30T06:56:56.552Z,8.38
2023-12-30T07:01:10.295Z,8.51
2023-12-30T07:05:20.693Z,8.70
2023-12-30T07:09:43.590Z,8.67
2023-12-30T07:13:54.990Z,8.86
2023-12-30T07:18:05.653Z,8.98
2023-12-30T07:22:11.386Z,9.14
2023-12-30T07:26:23.436Z,9.16
2023-12-30T07:30:33.762Z,9.25
2023-12-30T07:35:07.178Z,9.43
2023-12-30T07:39:10.865Z,9.46
2023-12-30T07:43:23.353Z,9.46
2023-12-30T07:52:12.807Z,9.60
2023-12-30T07:56:19.959Z,9.54
2023-12-30T08:00:26.491Z,9.21
2023-12-30T08:09:00.262Z,9.68
2023-12-30T08:13:15.327Z,9.42
2023-12-30T08:17:21.798Z,9.99
2023-12-30T08:21:30.201Z,9.78
2023-12-30T08:25:32.873Z,10.16
2023-12-30T08:29:36.746Z,10.07
2023-12-30T08:33:43.094Z,9.79
2023-12-30T08:37:45.892Z,10.18
2023-12-30T08:41:58.577Z,10.35
2023-12-30T08:46:05.781Z,10.53
2023-12-30T08:50:07.542Z,10.51
2023-12-30T08:54:17.231Z,10.60
2023-12-30T08:58:29.367Z,10.63
2023-12-30T09:02:35.027Z,10.87
2023-12-30T09:06:39.142Z,11.06
2023-12-30T09:10:59.102Z,10.89
2023-12-30T09:15:13.422Z,11.11
2023-12-30T09:19:34.477Z,11.11
2023-12-30T09:24:00.623Z,11.09
2023-12-30T09:28:17.477Z,11.36
2023-12-30T09:32:27.140Z,11.40
2023-12-30T09:36:42.078Z,11.49
2023-12-30T09:40:43.806Z,11.60
2023-12-30T09:44:47.570Z,11.16
2023-12-30T09:48:59.438Z,11.50
2023-12-30T09:53:43.322Z,11.90
2023-12-30T09:57:55.277Z,11.77
2023-12-30T10:02:05.716Z,11.91
2023-12-30T10:06:54.267Z,11.97
2023-12-30T10:11:26.832Z,12.07
2023-12-30T10:19:57.969Z,12.19
2023-12-30T10:24:15.802Z,12.34
2023-12-30T10:28:22.985Z,12.25
2023-12-30T10:32:31.099Z,12.25
2023-12-30T10:36:39.690Z,12.67
2023-12-30T10:41:17.266Z,12.87
2023-12-30T10:45:33.552Z,12.97
2023-12-30T10:50:27.256Z,13.02
2023-12-30T10:55:14.257Z,12.70
2023-12-30T10:59:32.934Z,12.88
2023-12-30T11:03:44.800Z,12.93
2023-12-30T11:07:55.670Z,12.83
2023-12-30T11:12:00.809Z,13.04
2023-12-30T11:16:46.842Z,13.34
2023-12-30T11:21:17.023Z,13.45
2023-12-30T11:25:19.195Z,13.57
2023-12-30T11:29:31.908Z,13.53
2023-12-30T11:33:40.575Z,13.40
2023-12-30T11:42:48.180Z,13.38
2023-12-30T11:46:56.995Z,13.75
2023-12-30T11:51:15.549Z,13.75
2023-12-30T11:55:37.899Z,13.61
2023-12-30T11:59:49.286Z,13.83
2023-12-30T12:04:06.045Z,13.89
2023-12-30T12:08:16.179Z,14.01
2023-12-30T12:12:59.710Z,14.21
2023-12-30T12:17:37.724Z,14.21
2023-12-30T12:21:53.512Z,14.20
2023-12-30T12:26:22.844Z,14.41
2023-12-30T12:30:56.910Z,14.38
2023-12-30T12:36:40.331Z,14.03
2023-12-30T12:40:55.585Z,14.10
2023-12-30T12:45:17.099Z,14.24
2023-12-30T12:49:45.761Z,14.34
2023-12-30T12:54:20.467Z,14.13
2023-12-30T13:08:38.720Z,14.33
2023-12-30T13:13:13.449Z,14.37
2023-12-30T13:17:24.315Z,13.85
2023-12-30T13:21:42.737Z,14.18
2023-12-30T13:25:47.856Z,14.05
2023-12-30T13:29:48.693Z,14.06
2023-12-30T13:34:02.216Z,14.05
2023-12-30T13:38:25.524Z,13.86
2023-12-30T13:42:29.137Z,13.98
2023-12-30T13:51:42.179Z,14.02
2023-12-30T13:55:53.009Z,14.07
2023-12-30T14:00:25.284Z,14.02
2023-12-30T14:04:57.060Z,14.06
2023-12-30T14:09:33.181Z,14.19
2023-12-30T14:14:29.528Z,14.14
2023-12-30T14:18:39.721Z,14.18
2023-12-30T14:23:04.224Z,13.90
2023-12-30T14:27:11.240Z,14.22
2023-12-30T14:31:33.331Z,14.30
2023-12-30T14:40:59.818Z,14.10
2023-12-30T14:45:22.681Z,13.99
2023-12-30T14:49:48.611Z,13.86
2023-12-30T14:55:02.326Z,13.79
2023-12-30T14:59:51.331Z,13.91
2023-12-30T15:05:13.655Z,13.93
2023-12-30T15:10:04.116Z,13.79
2023-12-30T15:20:23.111Z,13.23
2023-12-30T15:34:06.113Z,12.85
2023-12-30T15:38:17.978Z,12.67
2023-12-30T15:42:43.471Z,12.57
2023-12-30T15:47:00.316Z,12.49
2023-12-30T15:51:07.659Z,12.19
2023-12-30T15:55:12.007Z,12.52
2023-12-30T15:59:18.973Z,12.36
2023-12-30T16:03:27.270Z,12.47
2023-12-30T16:07:31.913Z,12.28
2023-12-30T16:11:33.394Z,12.06
2023-12-30T16:15:40.393Z,11.39
2023-12-30T16:19:44.861Z,11.09
2023-12-30T16:23:50.227Z,11.11
2023-12-30T16:27:55.374Z,10.90
2023-12-30T16:32:02.477Z,10.89
2023-12-30T16:36:06.725Z,10.88
2023-12-30T16:40:16.494Z,10.94
2023-12-30T16:44:23.155Z,11.04
2023-12-30T16:48:24.670Z,10.87
2023-12-30T16:52:35.648Z,10.75
2023-12-30T16:56:38.750Z,10.50
2023-12-30T17:00:42.840Z,10.55
2023-12-30T17:04:50.367Z,10.45
2023-12-30T17:09:08.488Z,10.45
2023-12-30T17:13:14.467Z,10.46
2023-12-30T17:17:19.091Z,10.65
2023-12-30T17:21:31.871Z,10.85
2023-12-30T17:25:39.326Z,10.95
2023-12-30T17:29:46.014Z,10.98
2023-12-30T17:33:48.923Z,11.03
2023-12-30T17:37:53.610Z,11.08
2023-12-30T17:42:02.569Z,10.81
2023-12-30T17:46:13.446Z,10.98
2023-12-30T17:50:33.002Z,11.14
2023-12-30T17:54:37.855Z,11.13
2023-12-30T17:58:39.439Z,11.16
2023-12-30T18:02:53.733Z,11.27
2023-12-30T18:06:59.567Z,11.30
2023-12-30T18:11:09.562Z,11.44
2023-12-30T18:15:13.124Z,11.47
2023-12-30T18:19:20.361Z,11.39
2023-12-30T18:23:25.360Z,11.57
2023-12-30T18:27:26.049Z,11.56
2023-12-30T18:31:32.785Z,11.48
2023-12-30T18:35:59.041Z,11.33
2023-12-30T18:40:03.100Z,11.27
2023-12-30T18:44:07.023Z,11.45
2023-12-30T18:48:44.911Z,11.50
2023-12-30T18:53:20.799Z,11.43
2023-12-30T18:57:45.393Z,11.46
2023-12-30T19:02:04.010Z,11.41
2023-12-30T19:06:16.283Z,11.33
2023-12-30T19:10:24.008Z,11.34
2023-12-30T19:14:38.109Z,11.23
2023-12-30T19:18:41.132Z,11.37
2023-12-30T19:22:53.915Z,11.30
2023-12-30T19:27:30.395Z,11.36
2023-12-30T19:31:37.232Z,11.34
2023-12-30T19:35:58.841Z,11.41
2023-12-30T19:39:59.878Z,11.33
2023-12-30T19:44:08.778Z,10.86
2023-12-30T19:48:16.435Z,11.09
2023-12-30T19:52:19.548Z,11.09
2023-12-30T19:56:29.560Z,10.97
2023-12-30T20:00:32.811Z,10.91
2023-12-30T20:04:48.439Z,10.90
2023-12-30T20:08:58.962Z,10.84
2023-12-30T20:13:19.744Z,10.74
2023-12-30T20:17:26.506Z,10.74
2023-12-30T20:21:41.454Z,10.75
2023-12-30T20:25:43.081Z,10.70
2023-12-30T20:29:48.497Z,10.76
2023-12-30T20:33:57.049Z,10.70
2023-12-30T20:38:07.908Z,10.62
2023-12-30T20:46:32.126Z,10.60
2023-12-30T20:50:40.964Z,10.38
2023-12-30T20:54:43.528Z,10.28
2023-12-30T20:58:45.144Z,10.15
2023-12-30T21:02:47.037Z,10.12
2023-12-30T21:06:50.530Z,10.03
2023-12-30T21:10:57.438Z,9.97
2023-12-30T21:15:07.292Z,9.94
2023-12-30T21:19:12.472Z,9.85
2023-12-30T21:23:21.272Z,9.94
2023-12-30T21:27:30.516Z,9.94
2023-12-30T21:31:33.772Z,10.10
2023-12-30T21:35:39.812Z,10.14
2023-12-30T21:39:58.106Z,10.00
2023-12-30T21:44:04.761Z,9.99
2023-12-30T21:48:09.753Z,9.93
2023-12-30T21:52:20.029Z,9.74
2023-12-30T21:56:28.924Z,9.65
2023-12-30T22:00:33.588Z,9.60
2023-12-30T22:04:37.179Z,9.45
2023-12-30T22:08:41.339Z,9.79
2023-12-30T22:12:56.154Z,9.91
2023-12-30T22:17:08.465Z,9.74
2023-12-30T22:21:23.090Z,9.59
2023-12-30T22:25:35.275Z,9.41
2023-12-30T22:29:49.164Z,9.43
2023-12-30T22:34:11.185Z,9.39
2023-12-30T22:38:49.601Z,9.44
2023-12-30T22:43:08.311Z,9.44
2023-12-30T22:47:14.882Z,9.44
2023-12-30T22:51:36.758Z,9.54
2023-12-30T22:55:43.417Z,9.61
2023-12-30T23:00:01.353Z,9.66
2023-12-30T23:04:12.866Z,9.62
2023-12-30T23:08:30.609Z,9.54
2023-12-30T23:12:34.441Z,9.55
2023-12-30T23:16:53.301Z,9.02
2023-12-30T23:21:19.537Z,9.61
2023-12-30T23:25:36.570Z,9.53
2023-12-30T23:29:41.013Z,9.42
2023-12-30T23:33:46.130Z,9.06
2023-12-30T23:37:57.099Z,9.37
2023-12-30T23:42:00.808Z,9.41
2023-12-30T23:46:07.831Z,9.05
2023-12-30T23:50:13.971Z,9.41
2023-12-30T23:54:17.694Z,9.31
2023-12-30T23:58:21.542Z,9.26
